sensor_id;sensor_type;location;lat;lon;timestamp;pressure;altitude;pressure_sealevel;temperature;humidity
15260;BME280;34462;51.368;12.364;2024-02-23T00:00:16;18570.22;;;-141.84;71.32
15260;BME280;34462;51.368;12.364;2024-02-23T00:02:45;18610.88;;;-141.84;72.57
15260;BME280;34462;51.368;12.364;2024-02-23T00:05:13;18509.28;;;-141.84;69.60
15260;BME280;34462;51.368;12.364;2024-02-23T00:07:41;18505.22;;;-141.84;68.41
15260;BME280;34462;51.368;12.364;2024-02-23T00:10:10;18482.88;;;-141.84;65.53
15260;BME280;34462;51.368;12.364;2024-02-23T00:12:40;18460.53;;;-141.84;64.88
15260;BME280;34462;51.368;12.364;2024-02-23T00:15:11;18486.94;;;-141.84;64.22
15260;BME280;34462;51.368;12.364;2024-02-23T00:17:40;18484.91;;;-141.84;63.70
15260;BME280;34462;51.368;12.364;2024-02-23T00:20:10;18482.88;;;-141.84;62.47
15260;BME280;34462;51.368;12.364;2024-02-23T00:22:39;18493.03;;;-141.84;62.25
15260;BME280;34462;51.368;12.364;2024-02-23T00:25:08;18503.19;;;-141.84;62.02
15260;BME280;34462;51.368;12.364;2024-02-23T00:27:36;18499.13;;;-141.84;63.01
15260;BME280;34462;51.368;12.364;2024-02-23T00:30:09;18478.81;;;-141.84;62.71
15260;BME280;34462;51.368;12.364;2024-02-23T00:32:37;18480.84;;;-141.84;62.79
15260;BME280;34462;51.368;12.364;2024-02-23T00:35:06;18509.28;;;-141.84;62.00
15260;BME280;34462;51.368;12.364;2024-02-23T00:37:34;18525.53;;;-141.84;62.34
15260;BME280;34462;51.368;12.364;2024-02-23T00:40:04;18509.28;;;-141.84;63.07
15260;BME280;34462;51.368;12.364;2024-02-23T00:42:32;18482.88;;;-141.84;62.98
15260;BME280;34462;51.368;12.364;2024-02-23T00:45:01;18488.97;;;-141.84;63.53
15260;BME280;34462;51.368;12.364;2024-02-23T00:47:30;18456.47;;;-141.84;63.11
15260;BME280;34462;51.368;12.364;2024-02-23T00:49:59;18478.81;;;-141.84;64.50
15260;BME280;34462;51.368;12.364;2024-02-23T00:52:27;18509.28;;;-141.84;64.92
15260;BME280;34462;51.368;12.364;2024-02-23T00:54:59;18468.66;;;-141.84;63.94
15260;BME280;34462;51.368;12.364;2024-02-23T00:57:29;18482.88;;;-141.84;63.80
15260;BME280;34462;51.368;12.364;2024-02-23T00:59:58;18505.22;;;-141.84;63.78
15260;BME280;34462;51.368;12.364;2024-02-23T01:02:26;18497.09;;;-141.84;63.73
15260;BME280;34462;51.368;12.364;2024-02-23T01:04:56;18456.47;;;-141.84;64.48
15260;BME280;34462;51.368;12.364;2024-02-23T01:07:25;18493.03;;;-141.84;64.32
15260;BME280;34462;51.368;12.364;2024-02-23T01:09:56;18505.22;;;-141.84;64.19
15260;BME280;34462;51.368;12.364;2024-02-23T01:12:25;18501.16;;;-141.84;64.97
15260;BME280;34462;51.368;12.364;2024-02-23T01:14:54;18476.78;;;-141.84;63.76
15260;BME280;34462;51.368;12.364;2024-02-23T01:17:22;18523.50;;;-141.84;63.59
15260;BME280;34462;51.368;12.364;2024-02-23T01:19:50;18505.22;;;-141.84;63.60
15260;BME280;34462;51.368;12.364;2024-02-23T01:22:20;18519.44;;;-141.84;63.06
15260;BME280;34462;51.368;12.364;2024-02-23T01:24:48;18519.44;;;-141.84;63.38
15260;BME280;34462;51.368;12.364;2024-02-23T01:27:16;18484.91;;;-141.84;62.67
15260;BME280;34462;51.368;12.364;2024-02-23T01:29:45;18533.66;;;-141.84;62.60
15260;BME280;34462;51.368;12.364;2024-02-23T01:32:13;18527.56;;;-141.84;62.39
15260;BME280;34462;51.368;12.364;2024-02-23T01:34:41;18503.19;;;-141.84;63.89
15260;BME280;34462;51.368;12.364;2024-02-23T01:37:12;18488.97;;;-141.84;64.06
15260;BME280;34462;51.368;12.364;2024-02-23T01:39:42;18468.66;;;-141.84;63.53
15260;BME280;34462;51.368;12.364;2024-02-23T01:42:10;18491.00;;;-141.84;64.15
15260;BME280;34462;51.368;12.364;2024-02-23T01:44:38;18466.63;;;-141.84;63.41
15260;BME280;34462;51.368;12.364;2024-02-23T01:47:07;18462.56;;;-141.84;62.78
15260;BME280;34462;51.368;12.364;2024-02-23T01:49:35;18470.69;;;-141.84;61.65
15260;BME280;34462;51.368;12.364;2024-02-23T01:52:05;18470.69;;;-141.84;61.62
15260;BME280;34462;51.368;12.364;2024-02-23T01:54:34;18484.91;;;-141.84;62.77
15260;BME280;34462;51.368;12.364;2024-02-23T01:57:04;18464.59;;;-141.84;62.14
15260;BME280;34462;51.368;12.364;2024-02-23T01:59:52;18491.00;;;-141.84;61.92
15260;BME280;34462;51.368;12.364;2024-02-23T02:02:21;18482.88;;;-141.84;62.46
15260;BME280;34462;51.368;12.364;2024-02-23T02:04:50;18482.88;;;-141.84;59.63
15260;BME280;34462;51.368;12.364;2024-02-23T02:07:18;18462.56;;;-141.84;58.35
15260;BME280;34462;51.368;12.364;2024-02-23T02:09:49;18505.22;;;-141.84;56.05
15260;BME280;34462;51.368;12.364;2024-02-23T02:12:29;18491.00;;;-141.84;56.43
15260;BME280;34462;51.368;12.364;2024-02-23T02:14:57;18511.31;;;-141.84;55.09
15260;BME280;34462;51.368;12.364;2024-02-23T02:17:31;18545.84;;;-141.84;54.96
15260;BME280;34462;51.368;12.364;2024-02-23T02:20:05;18543.81;;;-141.84;53.39
15260;BME280;34462;51.368;12.364;2024-02-23T02:22:37;18549.91;;;-141.84;53.59
15260;BME280;34462;51.368;12.364;2024-02-23T02:25:07;18547.88;;;-141.84;52.44
15260;BME280;34462;51.368;12.364;2024-02-23T02:27:41;18547.88;;;-141.84;52.79
15260;BME280;34462;51.368;12.364;2024-02-23T02:30:13;18553.97;;;-141.84;53.16
15260;BME280;34462;51.368;12.364;2024-02-23T02:32:41;18515.38;;;-141.84;53.51
15260;BME280;34462;51.368;12.364;2024-02-23T02:35:11;18531.63;;;-141.84;54.15
15260;BME280;34462;51.368;12.364;2024-02-23T02:37:40;18537.72;;;-141.84;54.50
15260;BME280;34462;51.368;12.364;2024-02-23T02:40:11;18509.28;;;-141.84;54.92
15260;BME280;34462;51.368;12.364;2024-02-23T02:42:40;18560.06;;;-141.84;55.92
15260;BME280;34462;51.368;12.364;2024-02-23T02:45:10;18491.00;;;-141.84;55.87
15260;BME280;34462;51.368;12.364;2024-02-23T02:47:38;18503.19;;;-141.84;56.39
15260;BME280;34462;51.368;12.364;2024-02-23T02:50:09;18511.31;;;-141.84;56.58
15260;BME280;34462;51.368;12.364;2024-02-23T02:52:37;18474.75;;;-141.84;57.02
15260;BME280;34462;51.368;12.364;2024-02-23T02:55:06;18478.81;;;-141.84;57.43
15260;BME280;34462;51.368;12.364;2024-02-23T02:57:35;18495.06;;;-141.84;57.54
15260;BME280;34462;51.368;12.364;2024-02-23T03:00:10;18486.94;;;-141.84;58.00
15260;BME280;34462;51.368;12.364;2024-02-23T03:02:38;18466.63;;;-141.84;57.92
15260;BME280;34462;51.368;12.364;2024-02-23T03:05:07;18515.38;;;-141.84;55.72
15260;BME280;34462;51.368;12.364;2024-02-23T03:07:37;18507.25;;;-141.84;55.51
15260;BME280;34462;51.368;12.364;2024-02-23T03:10:06;18513.34;;;-141.84;54.57
15260;BME280;34462;51.368;12.364;2024-02-23T03:12:35;18545.84;;;-141.84;55.02
15260;BME280;34462;51.368;12.364;2024-02-23T03:15:06;18513.34;;;-141.84;53.76
15260;BME280;34462;51.368;12.364;2024-02-23T03:17:35;18529.59;;;-141.84;53.63
15260;BME280;34462;51.368;12.364;2024-02-23T03:20:05;18551.94;;;-141.84;54.46
15260;BME280;34462;51.368;12.364;2024-02-23T03:22:37;18515.38;;;-141.84;52.70
15260;BME280;34462;51.368;12.364;2024-02-23T03:25:06;18537.72;;;-141.84;53.53
15260;BME280;34462;51.368;12.364;2024-02-23T03:27:38;18507.25;;;-141.84;53.90
15260;BME280;34462;51.368;12.364;2024-02-23T03:30:11;18493.03;;;-141.84;55.24
15260;BME280;34462;51.368;12.364;2024-02-23T03:32:39;18509.28;;;-141.84;55.49
15260;BME280;34462;51.368;12.364;2024-02-23T03:35:09;18525.53;;;-141.84;55.63
15260;BME280;34462;51.368;12.364;2024-02-23T03:37:37;18497.09;;;-141.84;55.97
15260;BME280;34462;51.368;12.364;2024-02-23T03:40:08;18499.13;;;-141.84;55.75
15260;BME280;34462;51.368;12.364;2024-02-23T03:42:38;18501.16;;;-141.84;56.36
15260;BME280;34462;51.368;12.364;2024-02-23T03:45:11;18456.47;;;-141.84;57.08
15260;BME280;34462;51.368;12.364;2024-02-23T03:47:40;18448.34;;;-141.84;57.38
15260;BME280;34462;51.368;12.364;2024-02-23T03:50:10;18474.75;;;-141.84;56.77
15260;BME280;34462;51.368;12.364;2024-02-23T03:52:38;18444.28;;;-141.84;57.57
15260;BME280;34462;51.368;12.364;2024-02-23T03:55:07;18444.28;;;-141.84;58.52
15260;BME280;34462;51.368;12.364;2024-02-23T03:57:35;18458.50;;;-141.84;58.36
15260;BME280;34462;51.368;12.364;2024-02-23T04:00:07;18448.34;;;-141.84;58.23
15260;BME280;34462;51.368;12.364;2024-02-23T04:02:35;18444.28;;;-141.84;57.55
15260;BME280;34462;51.368;12.364;2024-02-23T04:05:05;18423.94;;;-141.84;58.38
15260;BME280;34462;51.368;12.364;2024-02-23T04:07:33;18452.41;;;-141.84;57.74
15260;BME280;34462;51.368;12.364;2024-02-23T04:10:02;18460.53;;;-141.84;58.09
15260;BME280;34462;51.368;12.364;2024-02-23T04:12:31;18464.59;;;-141.84;58.84
15260;BME280;34462;51.368;12.364;2024-02-23T04:14:59;18434.13;;;-141.84;58.80
15260;BME280;34462;51.368;12.364;2024-02-23T04:17:29;18468.66;;;-141.84;58.38
15260;BME280;34462;51.368;12.364;2024-02-23T04:19:59;18413.78;;;-141.84;59.13
15260;BME280;34462;51.368;12.364;2024-02-23T04:22:28;18421.91;;;-141.84;59.96
15260;BME280;34462;51.368;12.364;2024-02-23T04:24:57;18407.69;;;-141.84;60.35
15260;BME280;34462;51.368;12.364;2024-02-23T04:27:25;18387.38;;;-141.84;60.28
15260;BME280;34462;51.368;12.364;2024-02-23T04:29:53;18403.63;;;-141.84;60.76
15260;BME280;34462;51.368;12.364;2024-02-23T04:32:21;18399.56;;;-141.84;61.08
15260;BME280;34462;51.368;12.364;2024-02-23T04:34:52;18395.50;;;-141.84;61.42
15260;BME280;34462;51.368;12.364;2024-02-23T04:37:21;18436.16;;;-141.84;61.85
15260;BME280;34462;51.368;12.364;2024-02-23T04:39:51;18415.81;;;-141.84;61.86
15260;BME280;34462;51.368;12.364;2024-02-23T04:42:19;18383.31;;;-141.84;61.71
15260;BME280;34462;51.368;12.364;2024-02-23T04:44:47;18399.56;;;-141.84;62.28
15260;BME280;34462;51.368;12.364;2024-02-23T04:47:17;18413.78;;;-141.84;61.65
15260;BME280;34462;51.368;12.364;2024-02-23T04:49:45;18397.53;;;-141.84;62.35
15260;BME280;34462;51.368;12.364;2024-02-23T04:52:14;18379.25;;;-141.84;63.33
15260;BME280;34462;51.368;12.364;2024-02-23T04:54:43;18350.81;;;-141.84;62.65
15260;BME280;34462;51.368;12.364;2024-02-23T04:57:11;18421.91;;;-141.84;62.32
15260;BME280;34462;51.368;12.364;2024-02-23T04:59:40;18381.28;;;-141.84;63.38
15260;BME280;34462;51.368;12.364;2024-02-23T05:02:08;18415.81;;;-141.84;62.92
15260;BME280;34462;51.368;12.364;2024-02-23T05:04:37;18387.38;;;-141.84;63.80
15260;BME280;34462;51.368;12.364;2024-02-23T05:07:05;18377.22;;;-141.84;63.38
15260;BME280;34462;51.368;12.364;2024-02-23T05:09:34;18387.38;;;-141.84;62.52
15260;BME280;34462;51.368;12.364;2024-02-23T05:12:03;18391.44;;;-141.84;62.54
15260;BME280;34462;51.368;12.364;2024-02-23T05:14:32;18379.25;;;-141.84;62.51
15260;BME280;34462;51.368;12.364;2024-02-23T05:17:00;18399.56;;;-141.84;61.60
15260;BME280;34462;51.368;12.364;2024-02-23T05:19:30;18428.03;;;-141.84;59.79
15260;BME280;34462;51.368;12.364;2024-02-23T05:21:59;18385.34;;;-141.84;60.43
15260;BME280;34462;51.368;12.364;2024-02-23T05:24:27;18383.31;;;-141.84;58.87
15260;BME280;34462;51.368;12.364;2024-02-23T05:27:00;18409.72;;;-141.84;57.51
15260;BME280;34462;51.368;12.364;2024-02-23T05:29:30;18442.25;;;-141.84;57.26
15260;BME280;34462;51.368;12.364;2024-02-23T05:31:59;18425.97;;;-141.84;56.91
15260;BME280;34462;51.368;12.364;2024-02-23T05:34:27;18425.97;;;-141.84;56.88
15260;BME280;34462;51.368;12.364;2024-02-23T05:36:56;18438.19;;;-141.84;56.14
15260;BME280;34462;51.368;12.364;2024-02-23T05:39:24;18440.22;;;-141.84;57.14
15260;BME280;34462;51.368;12.364;2024-02-23T05:41:52;18415.81;;;-141.84;57.91
15260;BME280;34462;51.368;12.364;2024-02-23T05:44:22;18428.03;;;-141.84;57.35
15260;BME280;34462;51.368;12.364;2024-02-23T05:46:50;18428.03;;;-141.84;57.33
15260;BME280;34462;51.368;12.364;2024-02-23T05:49:18;18387.38;;;-141.84;58.33
15260;BME280;34462;51.368;12.364;2024-02-23T05:51:46;18403.63;;;-141.84;58.39
15260;BME280;34462;51.368;12.364;2024-02-23T05:54:18;18419.88;;;-141.84;59.48
15260;BME280;34462;51.368;12.364;2024-02-23T05:56:46;18419.88;;;-141.84;60.12
15260;BME280;34462;51.368;12.364;2024-02-23T05:59:15;18411.75;;;-141.84;60.67
15260;BME280;34462;51.368;12.364;2024-02-23T06:01:45;18389.41;;;-141.84;61.44
15260;BME280;34462;51.368;12.364;2024-02-23T06:04:13;18405.66;;;-141.84;61.47
15260;BME280;34462;51.368;12.364;2024-02-23T06:06:42;18403.63;;;-141.84;62.02
15260;BME280;34462;51.368;12.364;2024-02-23T06:09:11;18369.09;;;-141.84;62.63
15260;BME280;34462;51.368;12.364;2024-02-23T06:11:39;18371.13;;;-141.84;63.69
15260;BME280;34462;51.368;12.364;2024-02-23T06:14:07;18428.03;;;-141.84;64.49
15260;BME280;34462;51.368;12.364;2024-02-23T06:16:35;18379.25;;;-141.84;64.22
15260;BME280;34462;51.368;12.364;2024-02-23T06:19:05;18399.56;;;-141.84;64.76
15260;BME280;34462;51.368;12.364;2024-02-23T06:21:36;18387.38;;;-141.84;64.76
15260;BME280;34462;51.368;12.364;2024-02-23T06:24:05;18395.50;;;-141.84;64.50
15260;BME280;34462;51.368;12.364;2024-02-23T06:26:35;18383.31;;;-141.84;65.34
15260;BME280;34462;51.368;12.364;2024-02-23T06:29:03;18403.63;;;-141.84;65.00
15260;BME280;34462;51.368;12.364;2024-02-23T06:31:32;18377.22;;;-141.84;65.03
15260;BME280;34462;51.368;12.364;2024-02-23T06:34:01;18387.38;;;-141.84;63.75
15260;BME280;34462;51.368;12.364;2024-02-23T06:36:32;18423.94;;;-141.84;64.41
15260;BME280;34462;51.368;12.364;2024-02-23T06:39:01;18405.66;;;-141.84;64.29
15260;BME280;34462;51.368;12.364;2024-02-23T06:41:29;18393.47;;;-141.84;63.88
15260;BME280;34462;51.368;12.364;2024-02-23T06:43:58;18373.16;;;-141.84;63.49
15260;BME280;34462;51.368;12.364;2024-02-23T06:46:26;18399.56;;;-141.84;61.67
15260;BME280;34462;51.368;12.364;2024-02-23T06:48:55;18434.13;;;-141.84;61.44
15260;BME280;34462;51.368;12.364;2024-02-23T06:51:23;18363.00;;;-141.84;62.30
15260;BME280;34462;51.368;12.364;2024-02-23T06:53:53;18407.69;;;-141.84;63.12
15260;BME280;34462;51.368;12.364;2024-02-23T06:56:23;18405.66;;;-141.84;63.13
15260;BME280;34462;51.368;12.364;2024-02-23T06:58:52;18381.28;;;-141.84;62.58
15260;BME280;34462;51.368;12.364;2024-02-23T07:01:20;18407.69;;;-141.84;62.06
15260;BME280;34462;51.368;12.364;2024-02-23T07:03:50;18381.28;;;-141.84;61.81
15260;BME280;34462;51.368;12.364;2024-02-23T07:06:18;18403.63;;;-141.84;60.65
15260;BME280;34462;51.368;12.364;2024-02-23T07:08:46;18413.78;;;-141.84;59.92
15260;BME280;34462;51.368;12.364;2024-02-23T07:11:16;18403.63;;;-141.84;61.31
15260;BME280;34462;51.368;12.364;2024-02-23T07:13:46;18423.94;;;-141.84;58.84
15260;BME280;34462;51.368;12.364;2024-02-23T07:16:15;18373.16;;;-141.84;59.57
15260;BME280;34462;51.368;12.364;2024-02-23T07:18:43;18417.84;;;-141.84;59.35
15260;BME280;34462;51.368;12.364;2024-02-23T07:21:12;18432.09;;;-141.84;58.03
15260;BME280;34462;51.368;12.364;2024-02-23T07:23:41;18411.75;;;-141.84;57.83
15260;BME280;34462;51.368;12.364;2024-02-23T07:26:10;18413.78;;;-141.84;57.76
15260;BME280;34462;51.368;12.364;2024-02-23T07:28:39;18428.03;;;-141.84;56.94
15260;BME280;34462;51.368;12.364;2024-02-23T07:31:07;18405.66;;;-141.84;56.51
15260;BME280;34462;51.368;12.364;2024-02-23T07:33:38;18438.19;;;-141.84;56.01
15260;BME280;34462;51.368;12.364;2024-02-23T07:36:07;18460.53;;;-141.84;55.28
15260;BME280;34462;51.368;12.364;2024-02-23T07:38:35;18480.84;;;-141.84;55.66
15260;BME280;34462;51.368;12.364;2024-02-23T07:41:04;18462.56;;;-141.84;54.90
15260;BME280;34462;51.368;12.364;2024-02-23T07:43:32;18456.47;;;-141.84;55.10
15260;BME280;34462;51.368;12.364;2024-02-23T07:46:02;18452.41;;;-141.84;53.97
15260;BME280;34462;51.368;12.364;2024-02-23T07:48:32;18493.03;;;-141.84;55.13
15260;BME280;34462;51.368;12.364;2024-02-23T07:51:00;18470.69;;;-141.84;54.17
15260;BME280;34462;51.368;12.364;2024-02-23T07:53:28;18468.66;;;-141.84;54.11
15260;BME280;34462;51.368;12.364;2024-02-23T07:55:57;18517.41;;;-141.84;52.69
15260;BME280;34462;51.368;12.364;2024-02-23T07:58:26;18466.63;;;-141.84;52.70
15260;BME280;34462;51.368;12.364;2024-02-23T08:00:57;18509.28;;;-141.84;52.97
15260;BME280;34462;51.368;12.364;2024-02-23T08:03:27;18482.88;;;-141.84;51.81
15260;BME280;34462;51.368;12.364;2024-02-23T08:05:59;18497.09;;;-141.84;52.16
15260;BME280;34462;51.368;12.364;2024-02-23T08:08:33;18511.31;;;-141.84;51.71
15260;BME280;34462;51.368;12.364;2024-02-23T08:11:03;18497.09;;;-141.84;52.06
15260;BME280;34462;51.368;12.364;2024-02-23T08:13:34;18525.53;;;-141.84;51.23
15260;BME280;34462;51.368;12.364;2024-02-23T08:16:02;18525.53;;;-141.84;50.84
15260;BME280;34462;51.368;12.364;2024-02-23T08:18:34;18537.72;;;-141.84;50.24
15260;BME280;34462;51.368;12.364;2024-02-23T08:21:04;18529.59;;;-141.84;50.29
15260;BME280;34462;51.368;12.364;2024-02-23T08:23:34;18529.59;;;-141.84;50.28
15260;BME280;34462;51.368;12.364;2024-02-23T08:26:02;18551.94;;;-141.84;50.33
15260;BME280;34462;51.368;12.364;2024-02-23T08:28:33;18566.16;;;-141.84;49.53
15260;BME280;34462;51.368;12.364;2024-02-23T08:31:02;18523.50;;;-141.84;49.65
15260;BME280;34462;51.368;12.364;2024-02-23T08:33:34;18590.56;;;-141.84;48.41
15260;BME280;34462;51.368;12.364;2024-02-23T08:36:03;18582.44;;;-141.84;47.71
15260;BME280;34462;51.368;12.364;2024-02-23T08:38:34;18612.91;;;-141.84;47.64
15260;BME280;34462;51.368;12.364;2024-02-23T08:41:03;18633.22;;;-141.84;47.37
15260;BME280;34462;51.368;12.364;2024-02-23T08:43:33;18604.78;;;-141.84;46.79
15260;BME280;34462;51.368;12.364;2024-02-23T08:46:02;18598.69;;;-141.84;47.31
15260;BME280;34462;51.368;12.364;2024-02-23T08:48:37;18594.63;;;-141.84;47.60
15260;BME280;34462;51.368;12.364;2024-02-23T08:51:05;18692.13;;;-141.84;47.36
15260;BME280;34462;51.368;12.364;2024-02-23T08:53:34;18631.19;;;-141.84;47.41
15260;BME280;34462;51.368;12.364;2024-02-23T08:56:03;18637.28;;;-141.84;47.14
15260;BME280;34462;51.368;12.364;2024-02-23T08:58:31;18659.63;;;-141.84;46.00
15260;BME280;34462;51.368;12.364;2024-02-23T09:00:59;18647.44;;;-141.84;45.50
15260;BME280;34462;51.368;12.364;2024-02-23T09:03:28;18649.47;;;-141.84;45.90
15260;BME280;34462;51.368;12.364;2024-02-23T09:05:57;18681.97;;;-141.84;45.75
15260;BME280;34462;51.368;12.364;2024-02-23T09:08:26;18690.09;;;-141.84;44.77
15260;BME280;34462;51.368;12.364;2024-02-23T09:10:54;18661.66;;;-141.84;44.86
15260;BME280;34462;51.368;12.364;2024-02-23T09:13:23;18714.50;;;-141.84;44.79
15260;BME280;34462;51.368;12.364;2024-02-23T09:15:53;18679.94;;;-141.84;45.55
15260;BME280;34462;51.368;12.364;2024-02-23T09:18:21;18659.63;;;-141.84;45.74
15260;BME280;34462;51.368;12.364;2024-02-23T09:20:50;18702.28;;;-141.84;45.14
15260;BME280;34462;51.368;12.364;2024-02-23T09:23:19;18724.66;;;-141.84;44.77
15260;BME280;34462;51.368;12.364;2024-02-23T09:25:48;18716.53;;;-141.84;45.18
15260;BME280;34462;51.368;12.364;2024-02-23T09:28:17;18734.81;;;-141.84;44.62
15260;BME280;34462;51.368;12.364;2024-02-23T09:30:45;18714.50;;;-141.84;45.09
15260;BME280;34462;51.368;12.364;2024-02-23T09:33:14;18710.44;;;-141.84;44.33
15260;BME280;34462;51.368;12.364;2024-02-23T09:35:42;18742.94;;;-141.84;44.99
15260;BME280;34462;51.368;12.364;2024-02-23T09:38:12;18763.25;;;-141.84;44.71
15260;BME280;34462;51.368;12.364;2024-02-23T09:40:41;18724.66;;;-141.84;45.14
15260;BME280;34462;51.368;12.364;2024-02-23T09:43:14;18747.00;;;-141.84;44.90
15260;BME280;34462;51.368;12.364;2024-02-23T09:45:45;18747.00;;;-141.84;45.12
15260;BME280;34462;51.368;12.364;2024-02-23T09:48:19;18787.63;;;-141.84;44.69
15260;BME280;34462;51.368;12.364;2024-02-23T09:50:51;18759.19;;;-141.84;44.87
15260;BME280;34462;51.368;12.364;2024-02-23T09:53:20;18777.47;;;-141.84;44.15
15260;BME280;34462;51.368;12.364;2024-02-23T09:55:51;18793.72;;;-141.84;44.96
15260;BME280;34462;51.368;12.364;2024-02-23T09:58:21;18757.16;;;-141.84;44.68
15260;BME280;34462;51.368;12.364;2024-02-23T10:00:53;18773.41;;;-141.84;44.19
15260;BME280;34462;51.368;12.364;2024-02-23T10:03:23;18785.59;;;-141.84;43.58
15260;BME280;34462;51.368;12.364;2024-02-23T10:05:53;18828.28;;;-141.84;44.17
15260;BME280;34462;51.368;12.364;2024-02-23T10:08:21;18787.63;;;-141.84;43.42
15260;BME280;34462;51.368;12.364;2024-02-23T10:10:52;18781.53;;;-141.84;43.49
15260;BME280;34462;51.368;12.364;2024-02-23T10:13:22;18807.94;;;-141.84;42.63
15260;BME280;34462;51.368;12.364;2024-02-23T10:15:52;18818.09;;;-141.84;42.68
15260;BME280;34462;51.368;12.364;2024-02-23T10:18:40;18822.19;;;-141.84;43.21
15260;BME280;34462;51.368;12.364;2024-02-23T10:21:09;18822.19;;;-141.84;42.96
15260;BME280;34462;51.368;12.364;2024-02-23T10:23:37;18830.31;;;-141.84;43.16
15260;BME280;34462;51.368;12.364;2024-02-23T10:26:08;18826.25;;;-141.84;42.60
15260;BME280;34462;51.368;12.364;2024-02-23T10:28:37;18832.34;;;-141.84;42.73
15260;BME280;34462;51.368;12.364;2024-02-23T10:31:06;18844.53;;;-141.84;42.20
15260;BME280;34462;51.368;12.364;2024-02-23T10:33:40;18848.59;;;-141.84;42.98
15260;BME280;34462;51.368;12.364;2024-02-23T10:36:15;18818.09;;;-141.84;43.01
15260;BME280;34462;51.368;12.364;2024-02-23T10:38:45;18858.75;;;-141.84;42.58
15260;BME280;34462;51.368;12.364;2024-02-23T10:41:17;18854.69;;;-141.84;42.91
15260;BME280;34462;51.368;12.364;2024-02-23T10:43:48;18846.56;;;-141.84;42.75
15260;BME280;34462;51.368;12.364;2024-02-23T10:46:19;18836.41;;;-141.84;43.68
15260;BME280;34462;51.368;12.364;2024-02-23T10:48:49;18883.13;;;-141.84;42.80
15260;BME280;34462;51.368;12.364;2024-02-23T10:51:18;18807.94;;;-141.84;42.92
15260;BME280;34462;51.368;12.364;2024-02-23T10:53:52;18807.94;;;-141.84;42.60
15260;BME280;34462;51.368;12.364;2024-02-23T10:56:22;18812.00;;;-141.84;43.16
15260;BME280;34462;51.368;12.364;2024-02-23T10:58:53;18803.88;;;-141.84;43.48
15260;BME280;34462;51.368;12.364;2024-02-23T11:01:24;18854.69;;;-141.84;43.37
15260;BME280;34462;51.368;12.364;2024-02-23T11:03:53;18840.47;;;-141.84;43.56
15260;BME280;34462;51.368;12.364;2024-02-23T11:06:28;18822.19;;;-141.84;43.23
15260;BME280;34462;51.368;12.364;2024-02-23T11:09:05;18850.63;;;-141.84;42.99
15260;BME280;34462;51.368;12.364;2024-02-23T11:11:37;18836.41;;;-141.84;42.74
15260;BME280;34462;51.368;12.364;2024-02-23T11:14:08;18834.38;;;-141.84;42.87
15260;BME280;34462;51.368;12.364;2024-02-23T11:16:40;18824.22;;;-141.84;43.30
15260;BME280;34462;51.368;12.364;2024-02-23T11:19:10;18846.56;;;-141.84;42.61
15260;BME280;34462;51.368;12.364;2024-02-23T11:21:39;18844.53;;;-141.84;42.81
15260;BME280;34462;51.368;12.364;2024-02-23T11:24:07;18826.25;;;-141.84;42.92
15260;BME280;34462;51.368;12.364;2024-02-23T11:26:38;18870.94;;;-141.84;42.49
15260;BME280;34462;51.368;12.364;2024-02-23T11:29:14;18846.56;;;-141.84;42.49
15260;BME280;34462;51.368;12.364;2024-02-23T11:31:46;18854.69;;;-141.84;43.18
15260;BME280;34462;51.368;12.364;2024-02-23T11:34:22;18872.97;;;-141.84;42.57
15260;BME280;34462;51.368;12.364;2024-02-23T11:36:52;18854.69;;;-141.84;42.39
15260;BME280;34462;51.368;12.364;2024-02-23T11:39:21;18850.63;;;-141.84;42.20
15260;BME280;34462;51.368;12.364;2024-02-23T11:41:51;18854.69;;;-141.84;42.52
15260;BME280;34462;51.368;12.364;2024-02-23T11:44:19;18862.81;;;-141.84;42.47
15260;BME280;34462;51.368;12.364;2024-02-23T11:46:48;18885.16;;;-141.84;42.44
15260;BME280;34462;51.368;12.364;2024-02-23T11:49:18;18891.25;;;-141.84;42.33
15260;BME280;34462;51.368;12.364;2024-02-23T11:51:47;18909.53;;;-141.84;42.50
15260;BME280;34462;51.368;12.364;2024-02-23T11:54:17;18868.91;;;-141.84;42.35
15260;BME280;34462;51.368;12.364;2024-02-23T11:56:45;18854.69;;;-141.84;42.48
15260;BME280;34462;51.368;12.364;2024-02-23T11:59:15;18893.28;;;-141.84;42.49
15260;BME280;34462;51.368;12.364;2024-02-23T12:01:45;18862.81;;;-141.84;42.48
15260;BME280;34462;51.368;12.364;2024-02-23T12:04:14;18901.41;;;-141.84;41.96
15260;BME280;34462;51.368;12.364;2024-02-23T12:06:43;18887.19;;;-141.84;41.25
15260;BME280;34462;51.368;12.364;2024-02-23T12:09:14;18852.66;;;-141.84;41.89
15260;BME280;34462;51.368;12.364;2024-02-23T12:11:43;18913.59;;;-141.84;41.51
15260;BME280;34462;51.368;12.364;2024-02-23T12:14:11;18897.34;;;-141.84;41.32
15260;BME280;34462;51.368;12.364;2024-02-23T12:16:41;18940.03;;;-141.84;41.48
15260;BME280;34462;51.368;12.364;2024-02-23T12:19:09;18883.13;;;-141.84;41.92
15260;BME280;34462;51.368;12.364;2024-02-23T12:21:38;18887.19;;;-141.84;42.35
15260;BME280;34462;51.368;12.364;2024-02-23T12:24:07;18905.47;;;-141.84;41.88
15260;BME280;34462;51.368;12.364;2024-02-23T12:26:36;18872.97;;;-141.84;42.01
15260;BME280;34462;51.368;12.364;2024-02-23T12:29:05;18889.22;;;-141.84;41.70
15260;BME280;34462;51.368;12.364;2024-02-23T12:31:33;18905.47;;;-141.84;41.84
15260;BME280;34462;51.368;12.364;2024-02-23T12:34:03;18903.44;;;-141.84;41.72
15260;BME280;34462;51.368;12.364;2024-02-23T12:36:34;18903.44;;;-141.84;41.63
15260;BME280;34462;51.368;12.364;2024-02-23T12:39:03;18895.31;;;-141.84;41.87
15260;BME280;34462;51.368;12.364;2024-02-23T12:41:31;18954.25;;;-141.84;42.28